Time;durP1;ratioP1;P1;durP2;ratioP2;P2;SDS_P1;SDS_P2;PMS_P1;PMS_P2;Temp;Humidity;BMP_temperature;BMP_pressure;BME280_temperature;BME280_humidity;BME280_pressure;Samples;Min_cycle;Max_cycle;Signal;HPM_P1;HPM_P2
2021/08/17 00:02:12;;;;;;;15.30;10.70;;;;;;;22.70;57.09;99092.20;129778;1093;22546;-64
2021/08/17 00:04:41;;;;;;;15.35;10.88;;;;;;;22.69;57.07;99090.58;129666;1095;114508;-65
2021/08/17 00:07:30;;;;;;;17.38;10.55;;;;;;;22.65;57.30;99090.46;129763;1093;22581;-64
2021/08/17 00:09:59;;;;;;;17.25;11.75;;;;;;;22.63;57.73;99083.66;129680;1093;114622;-64
2021/08/17 00:12:28;;;;;;;14.80;9.85;;;;;;;22.61;57.44;99088.75;129778;1092;22567;-64
2021/08/17 00:15:14;;;;;;;17.88;11.08;;;;;;;22.60;57.47;99081.58;129731;1093;22540;-64
2021/08/17 00:17:43;;;;;;;16.93;12.18;;;;;;;22.59;57.63;99083.55;129653;1092;114156;-64
2021/08/17 00:20:14;;;;;;;23.70;11.45;;;;;;;22.58;57.79;99087.48;129796;1095;22540;-64
2021/08/17 00:22:42;;;;;;;17.18;12.03;;;;;;;22.56;57.82;99090.59;129675;1092;114115;-64
2021/08/17 00:25:11;;;;;;;17.75;11.78;;;;;;;22.54;57.96;99089.32;129794;1093;22557;-64
2021/08/17 00:27:40;;;;;;;15.48;11.58;;;;;;;22.52;57.91;99086.89;129718;1093;114272;-64
2021/08/17 00:30:11;;;;;;;16.73;12.63;;;;;;;22.50;58.05;99093.97;129774;1093;23103;-64
2021/08/17 00:32:40;;;;;;;19.63;11.93;;;;;;;22.48;58.27;99093.50;129779;1093;22574;-64
2021/08/17 00:35:09;;;;;;;17.63;11.20;;;;;;;22.45;58.25;99092.23;129668;1093;114192;-64
2021/08/17 00:37:42;;;;;;;16.10;11.80;;;;;;;22.43;58.23;99090.95;129744;1093;22553;-65
2021/08/17 00:40:11;;;;;;;14.60;11.35;;;;;;;22.41;58.26;99090.48;129687;1094;114879;-65
2021/08/17 00:42:44;;;;;;;14.33;11.38;;;;;;;22.40;58.28;99080.53;129805;1093;22545;-64
2021/08/17 00:45:20;;;;;;;15.43;11.65;;;;;;;22.39;58.28;99085.27;129777;1093;22545;-64
2021/08/17 00:47:51;;;;;;;14.55;11.75;;;;;;;22.37;58.43;99089.55;129651;1096;113954;-65
2021/08/17 00:50:27;;;;;;;18.75;12.00;;;;;;;22.37;58.44;99086.77;129746;1094;22595;-64
2021/08/17 00:52:56;;;;;;;17.95;11.73;;;;;;;22.35;58.54;99086.33;129623;1092;114028;-65
2021/08/17 00:55:26;;;;;;;20.55;12.20;;;;;;;22.33;58.57;99083.09;129776;1092;22894;-64
2021/08/17 00:57:57;;;;;;;17.80;11.88;;;;;;;22.31;58.57;99085.40;129714;1093;114149;-64
2021/08/17 01:00:26;;;;;;;16.03;10.75;;;;;;;22.29;58.72;99084.93;129775;1093;22527;-64
2021/08/17 01:02:55;;;;;;;16.33;11.48;;;;;;;22.28;58.80;99089.67;129762;1093;22627;-64
2021/08/17 01:05:27;;;;;;;17.88;11.70;;;;;;;22.27;58.86;99079.72;129701;1092;114123;-64
2021/08/17 01:07:58;;;;;;;18.45;11.65;;;;;;;22.26;59.02;99080.06;129793;1093;23062;-64
2021/08/17 01:10:27;;;;;;;18.23;11.40;;;;;;;22.24;59.11;99088.73;129663;1093;114085;-65
2021/08/17 01:12:55;;;;;;;18.40;11.95;;;;;;;22.23;59.13;99084.34;129770;1096;22640;-64
2021/08/17 01:15:44;;;;;;;17.50;11.10;;;;;;;22.21;59.13;99093.04;129694;1092;114534;-65
2021/08/17 01:18:13;;;;;;;15.23;11.98;;;;;;;22.20;59.08;99090.60;129760;1093;22574;-65
2021/08/17 01:21:07;;;;;;;21.95;11.38;;;;;;;22.20;59.12;99090.60;129765;1093;22626;-65
2021/08/17 01:23:36;;;;;;;16.03;11.13;;;;;;;22.18;59.13;99093.72;129713;1093;114002;-65
2021/08/17 01:26:05;;;;;;;16.93;11.05;;;;;;;22.16;59.26;99084.92;129768;1093;23163;-65
2021/08/17 01:28:34;;;;;;;21.80;12.95;;;;;;;22.15;59.38;99085.27;129651;1092;114291;-65
2021/08/17 01:31:05;;;;;;;15.75;12.05;;;;;;;22.14;59.39;99091.97;129789;1093;22531;-64
2021/08/17 01:33:35;;;;;;;16.35;12.40;;;;;;;22.12;59.40;99088.73;129552;1094;114259;-64
2021/08/17 01:36:04;;;;;;;15.85;12.55;;;;;;;22.09;59.34;99095.77;129794;1092;23388;-64
2021/08/17 01:38:33;;;;;;;16.75;11.98;;;;;;;22.07;59.50;99087.01;129798;1093;22561;-65
2021/08/17 01:41:02;;;;;;;21.60;13.00;;;;;;;22.05;59.62;99092.09;129623;1093;114576;-64
2021/08/17 01:43:31;;;;;;;21.18;13.35;;;;;;;22.05;59.75;99091.28;129768;1093;23405;-65
2021/08/17 01:46:00;;;;;;;20.23;12.58;;;;;;;22.01;59.78;99084.78;129675;1093;114301;-64
2021/08/17 01:48:31;;;;;;;17.33;12.93;;;;;;;21.98;59.90;99082.66;129824;1092;22653;-64
2021/08/17 01:51:02;;;;;;;19.43;13.50;;;;;;;21.96;59.94;99087.73;129780;1092;22644;-64
2021/08/17 01:53:32;;;;;;;22.43;13.45;;;;;;;21.94;59.71;99085.30;129662;1092;113872;-64
2021/08/17 01:56:11;;;;;;;22.10;12.90;;;;;;;21.93;60.17;99075.36;129780;1093;22548;-64
2021/08/17 01:58:41;;;;;;;15.83;12.35;;;;;;;21.93;60.34;99089.23;129676;1093;113999;-65
2021/08/17 02:01:11;;;;;;;16.70;12.78;;;;;;;21.92;60.25;99084.87;129795;1093;22526;-65
2021/08/17 02:03:53;;;;;;;20.03;11.75;;;;;;;21.92;60.21;99087.64;129676;1092;114338;-65
2021/08/17 02:06:22;;;;;;;19.38;12.63;;;;;;;21.91;60.32;99083.25;129764;1093;22541;-65
2021/08/17 02:08:51;;;;;;;27.83;15.85;;;;;;;21.90;60.40;99076.08;129747;1092;22586;-65
2021/08/17 02:11:21;;;;;;;20.93;15.48;;;;;;;21.90;60.29;99080.81;129685;1092;114451;-65
2021/08/17 02:13:50;;;;;;;23.02;14.95;;;;;;;21.86;60.50;99078.72;129800;1092;22558;-65
2021/08/17 02:16:39;;;;;;;21.35;15.03;;;;;;;21.85;60.65;99073.52;129689;1092;114310;-65
2021/08/17 02:19:09;;;;;;;25.95;14.05;;;;;;;21.82;60.56;99074.19;129779;1096;22643;-67
2021/08/17 02:21:57;;;;;;;17.65;13.23;;;;;;;21.78;60.64;99070.50;129662;1093;114367;-65
2021/08/17 02:24:26;;;;;;;20.20;13.38;;;;;;;21.75;60.77;99066.45;129787;1092;22548;-65
2021/08/17 02:26:56;;;;;;;19.20;14.13;;;;;;;21.74;60.64;99072.34;129792;1092;22565;-65
2021/08/17 02:29:26;;;;;;;20.83;14.33;;;;;;;21.72;60.75;99069.91;129687;1093;114158;-65
2021/08/17 02:31:55;;;;;;;16.95;12.75;;;;;;;21.70;60.87;99061.11;129784;1095;23187;-64
2021/08/17 02:34:24;;;;;;;20.18;13.80;;;;;;;21.71;60.96;99067.47;129688;1092;114121;-65
2021/08/17 02:36:53;;;;;;;18.58;13.33;;;;;;;21.68;61.02;99065.38;129774;1093;22581;-65
2021/08/17 02:39:22;;;;;;;24.68;14.48;;;;;;;21.66;61.04;99068.48;129812;1093;22574;-65
2021/08/17 02:41:54;;;;;;;20.33;13.78;;;;;;;21.64;61.03;99068.02;129681;1092;114240;-64
2021/08/17 02:44:24;;;;;;;20.38;14.25;;;;;;;21.60;61.11;99061.55;129778;1093;22540;-64
2021/08/17 02:47:08;;;;;;;20.35;13.93;;;;;;;21.58;61.05;99068.59;129671;1092;114158;-64
2021/08/17 02:49:37;;;;;;;24.28;14.18;;;;;;;21.57;61.16;99066.97;129776;1093;22553;-65
2021/08/17 02:52:06;;;;;;;21.73;14.55;;;;;;;21.55;61.26;99058.17;129676;1093;114335;-65
2021/08/17 02:54:36;;;;;;;20.68;13.95;;;;;;;21.51;61.29;99064.40;129805;1093;22540;-65
2021/08/17 02:57:07;;;;;;;26.10;14.15;;;;;;;21.49;61.39;99058.41;129767;1092;23017;-65
2021/08/17 02:59:36;;;;;;;24.38;15.45;;;;;;;21.47;61.48;99068.22;129697;1092;114576;-64
2021/08/17 03:02:25;;;;;;;22.60;13.50;;;;;;;21.46;61.60;99059.09;129783;1093;22547;-64
2021/08/17 03:04:54;;;;;;;23.45;13.85;;;;;;;21.45;61.46;99049.15;129612;1092;114413;-65
2021/08/17 03:07:23;;;;;;;25.83;14.25;;;;;;;21.46;61.62;99055.50;129788;1093;23613;-65
2021/08/17 03:09:52;;;;;;;21.38;13.78;;;;;;;21.44;61.62;99046.72;129651;1092;114948;-65
2021/08/17 03:12:20;;;;;;;18.35;14.23;;;;;;;21.44;61.55;99061.39;129817;1093;22992;-65
2021/08/17 03:14:50;;;;;;;24.78;13.80;;;;;;;21.45;61.59;99051.11;129814;1092;22584;-65
2021/08/17 03:17:19;;;;;;;17.97;13.43;;;;;;;21.33;61.41;99034.44;129700;1093;114153;-64
2021/08/17 03:19:48;;;;;;;20.98;13.10;;;;;;;21.45;61.44;99051.92;129786;1092;22596;-65
2021/08/17 03:22:18;;;;;;;20.05;13.18;;;;;;;21.47;61.51;99051.58;129728;1093;114620;-65
2021/08/17 03:24:49;;;;;;;19.23;13.55;;;;;;;21.48;61.29;99055.98;129757;1093;22551;-65
2021/08/17 03:27:17;;;;;;;19.40;13.25;;;;;;;21.51;61.17;99060.81;129794;1093;23026;-65
2021/08/17 03:29:46;;;;;;;20.18;14.05;;;;;;;21.53;61.30;99059.33;129681;1096;114199;-65
2021/08/17 03:32:15;;;;;;;25.78;13.55;;;;;;;21.57;61.36;99056.69;129788;1093;22541;-65
2021/08/17 03:34:44;;;;;;;19.70;13.30;;;;;;;21.61;61.10;99052.09;129685;1093;114534;-65
2021/08/17 03:37:13;;;;;;;17.53;13.53;;;;;;;21.65;61.08;99052.19;129822;1093;22553;-65
2021/08/17 03:39:42;;;;;;;21.00;12.93;;;;;;;21.71;60.90;99053.61;129675;1093;114244;-65
2021/08/17 03:42:11;;;;;;;19.93;12.30;;;;;;;21.75;60.99;99051.77;129783;1093;22521;-65
2021/08/17 03:44:40;;;;;;;19.40;13.53;;;;;;;21.80;60.76;99045.98;129765;1093;22548;-66
2021/08/17 03:47:09;;;;;;;21.15;13.18;;;;;;;21.83;60.67;99054.44;129687;1093;114981;-65
2021/08/17 03:49:38;;;;;;;21.00;13.40;;;;;;;21.85;60.35;99041.04;129792;1094;22570;-64
2021/08/17 03:52:06;;;;;;;18.13;12.88;;;;;;;21.90;60.42;99055.84;129672;1093;114273;-65
2021/08/17 03:54:35;;;;;;;20.78;13.25;;;;;;;21.93;60.51;99046.84;129801;1093;24044;-66
2021/08/17 03:57:04;;;;;;;20.73;14.10;;;;;;;21.96;60.42;99046.94;129788;1096;22638;-66
2021/08/17 03:59:47;;;;;;;21.48;13.65;;;;;;;21.99;60.47;99053.77;129663;1092;114157;-65
2021/08/17 04:02:16;;;;;;;22.33;13.80;;;;;;;22.04;60.41;99059.13;129761;1093;23037;-65
2021/08/17 04:04:46;;;;;;;21.00;13.83;;;;;;;22.07;60.30;99055.67;129669;1093;114157;-66
2021/08/17 04:07:16;;;;;;;18.60;12.48;;;;;;;22.09;60.37;99039.47;129801;1093;22497;-65
2021/08/17 04:09:45;;;;;;;17.45;12.95;;;;;;;22.14;60.38;99042.02;129679;1093;114693;-65
2021/08/17 04:12:14;;;;;;;22.45;12.45;;;;;;;22.18;60.32;99049.32;129795;1092;22549;-65
2021/08/17 04:15:01;;;;;;;22.60;11.33;;;;;;;22.24;60.02;99055.43;129777;1095;22602;-64
2021/08/17 04:17:50;;;;;;;26.50;12.55;;;;;;;22.29;60.12;99046.08;129619;1096;113901;-62
2021/08/17 04:20:20;;;;;;;20.00;12.33;;;;;;;22.33;60.00;99053.37;129777;1093;22644;-62
2021/08/17 04:22:49;;;;;;;16.50;11.58;;;;;;;22.39;59.78;99051.96;129694;1093;114536;-62
2021/08/17 04:25:21;;;;;;;18.88;12.55;;;;;;;22.47;59.85;99050.23;129764;1093;22543;-63
2021/08/17 04:27:50;;;;;;;20.20;11.40;;;;;;;22.54;59.80;99040.16;129663;1093;114703;-63
2021/08/17 04:30:20;;;;;;;22.28;12.63;;;;;;;22.61;59.83;99041.55;129810;1094;22720;-62
2021/08/17 04:33:00;;;;;;;21.50;11.43;;;;;;;22.72;59.54;99048.23;129783;1093;22577;-62
2021/08/17 04:35:30;;;;;;;15.63;12.08;;;;;;;22.81;59.31;99051.70;129644;1093;114291;-62
2021/08/17 04:37:59;;;;;;;20.63;11.15;;;;;;;22.94;58.87;99049.73;129807;1093;23458;-61
2021/08/17 04:40:28;;;;;;;21.90;11.33;;;;;;;23.06;58.76;99047.73;127067;1093;115062;-61
2021/08/17 04:42:57;;;;;;;20.05;11.75;;;;;;;23.19;57.83;99052.08;125190;1093;22951;-59
2021/08/17 04:45:27;;;;;;;25.73;11.93;;;;;;;23.33;57.75;99053.64;125202;1093;22790;-59
2021/08/17 04:47:56;;;;;;;21.95;11.88;;;;;;;23.46;57.39;99063.55;125114;1095;114101;-60
2021/08/17 04:50:26;;;;;;;16.23;11.30;;;;;;;23.56;56.75;99063.06;124979;1093;25647;-60
2021/08/17 04:52:55;;;;;;;13.48;11.08;;;;;;;23.62;56.78;99067.21;129700;1096;113962;-62
2021/08/17 04:55:43;;;;;;;17.18;10.70;;;;;;;23.78;56.38;99064.46;129799;1092;22583;-62
2021/08/17 04:58:13;;;;;;;26.07;11.93;;;;;;;23.98;56.39;99075.33;129648;1095;115454;-62
2021/08/17 05:00:44;;;;;;;18.13;11.10;;;;;;;24.24;56.03;99065.66;129799;1094;23465;-62
2021/08/17 05:03:13;;;;;;;18.75;12.05;;;;;;;24.52;55.32;99071.95;129796;1093;24204;-62
2021/08/17 05:05:42;;;;;;;16.93;12.40;;;;;;;24.76;54.06;99078.46;129661;1092;113992;-62
2021/08/17 05:08:11;;;;;;;19.60;11.25;;;;;;;24.98;54.23;99075.00;130042;1093;23432;-62
2021/08/17 05:11:00;;;;;;;15.40;10.75;;;;;;;25.20;53.72;99074.30;129718;1093;114441;-62
2021/08/17 05:13:49;;;;;;;23.58;11.10;;;;;;;25.44;53.06;99073.20;129801;1092;23267;-62
2021/08/17 05:16:21;;;;;;;27.05;11.50;;;;;;;25.66;52.04;99075.28;129872;1092;114136;-62
2021/08/17 05:19:01;;;;;;;20.13;11.28;;;;;;;25.84;52.16;99075.59;130069;1093;22732;-62
2021/08/17 05:21:31;;;;;;;19.25;11.28;;;;;;;26.05;51.24;99087.16;130015;1093;22682;-62
2021/08/17 05:24:19;;;;;;;18.13;10.35;;;;;;;26.24;50.81;99080.72;129806;1093;22622;-61
2021/08/17 05:26:49;;;;;;;22.85;10.83;;;;;;;26.38;50.64;99089.36;129858;1093;22497;-61
2021/08/17 05:29:18;;;;;;;18.33;11.10;;;;;;;26.55;50.69;99078.82;129723;1093;114186;-61
2021/08/17 05:31:47;;;;;;;24.23;11.40;;;;;;;26.71;50.55;99068.30;129806;1092;22548;-61
2021/08/17 05:34:17;;;;;;;15.23;10.75;;;;;;;26.88;50.40;99061.36;129648;1093;114411;-62
2021/08/17 05:36:46;;;;;;;21.43;11.73;;;;;;;27.07;49.86;99062.07;129822;1093;22623;-61
2021/08/17 05:39:15;;;;;;;15.80;11.15;;;;;;;27.24;49.20;99065.48;129815;1093;22837;-62
2021/08/17 05:41:47;;;;;;;20.08;11.58;;;;;;;27.33;49.41;99069.59;129904;1093;114315;-62
2021/08/17 05:44:17;;;;;;;18.70;10.78;;;;;;;27.41;49.21;99062.88;129961;1093;22545;-61
2021/08/17 05:46:46;;;;;;;14.88;10.45;;;;;;;27.48;49.44;99070.57;129892;1092;114640;-63
2021/08/17 05:49:15;;;;;;;17.38;10.63;;;;;;;27.51;48.71;99072.61;129816;1092;22631;-61
2021/08/17 05:51:46;;;;;;;17.25;11.13;;;;;;;27.52;48.94;99068.63;129771;1093;23329;-62
2021/08/17 05:54:18;;;;;;;26.35;12.05;;;;;;;27.48;48.46;99067.77;129835;1092;113923;-65
2021/08/17 05:57:07;;;;;;;17.53;10.90;;;;;;;27.41;48.90;99067.70;130005;1093;22676;-65
2021/08/17 05:59:37;;;;;;;13.85;10.98;;;;;;;27.32;49.38;99072.77;129920;1092;114344;-65
2021/08/17 06:02:05;;;;;;;18.13;10.95;;;;;;;27.24;49.17;99068.28;129982;1092;22579;-65
2021/08/17 06:04:35;;;;;;;12.68;9.80;;;;;;;27.12;49.16;99076.92;129981;1093;114432;-65
2021/08/17 06:07:03;;;;;;;16.15;11.20;;;;;;;27.05;49.58;99072.83;130035;1093;22543;-65
2021/08/17 06:09:34;;;;;;;24.40;11.73;;;;;;;27.00;49.67;99072.34;129951;1092;22524;-64
2021/08/17 06:12:13;;;;;;;32.05;11.75;;;;;;;26.91;49.87;99069.00;129892;1093;116004;-65
2021/08/17 06:14:42;;;;;;;16.58;10.20;;;;;;;26.84;50.26;99066.89;130051;1091;22633;-65
2021/08/17 06:17:14;;;;;;;17.25;10.73;;;;;;;26.81;50.02;99062.08;129909;1093;114505;-64
2021/08/17 06:19:43;;;;;;;18.35;11.20;;;;;;;26.78;50.72;99062.83;129833;1092;23612;-65
2021/08/17 06:22:12;;;;;;;15.85;9.23;;;;;;;26.76;50.65;99063.20;129683;1093;114326;-65
2021/08/17 06:24:40;;;;;;;20.40;10.78;;;;;;;26.75;50.63;99060.78;130053;1093;23539;-64
2021/08/17 06:27:10;;;;;;;32.43;11.90;;;;;;;26.76;50.55;99060.41;130060;1091;22621;-65
2021/08/17 06:29:51;;;;;;;16.80;11.15;;;;;;;26.78;50.80;99062.02;129723;1092;114313;-64
2021/08/17 06:32:20;;;;;;;13.40;9.98;;;;;;;26.78;50.33;99060.03;129792;1093;22623;-65
2021/08/17 06:34:49;;;;;;;25.23;12.13;;;;;;;26.78;50.19;99053.63;129712;1093;114457;-64
2021/08/17 06:37:38;;;;;;;20.88;11.15;;;;;;;26.78;50.20;99054.44;129805;1093;22569;-64
2021/08/17 06:40:08;;;;;;;14.70;10.10;;;;;;;26.79;49.92;99052.45;128004;1093;114868;-65
2021/08/17 06:42:37;;;;;;;19.08;10.63;;;;;;;26.79;49.46;99049.66;129991;1092;22603;-65
2021/08/17 06:45:07;;;;;;;19.43;10.13;;;;;;;26.81;50.13;99055.68;129829;1093;22598;-65
2021/08/17 06:47:46;;;;;;;18.18;11.00;;;;;;;26.82;50.00;99052.52;129751;1093;114645;-65
2021/08/17 06:50:34;;;;;;;20.85;10.25;;;;;;;26.85;50.10;99054.53;129778;1092;22651;-65
2021/08/17 06:53:04;;;;;;;21.50;9.63;;;;;;;26.90;50.10;99051.41;129883;1092;114225;-65
2021/08/17 06:55:33;;;;;;;15.85;9.25;;;;;;;26.94;50.38;99051.50;129813;1093;23350;-65
2021/08/17 06:58:04;;;;;;;18.30;8.93;;;;;;;26.94;49.51;99052.31;129708;1093;114154;-65
2021/08/17 07:00:33;;;;;;;23.45;9.58;;;;;;;26.98;49.67;99055.16;129859;1092;23674;-64
2021/08/17 07:03:04;;;;;;;15.15;9.75;;;;;;;27.02;48.67;99044.81;129770;1093;22574;-66
2021/08/17 07:05:38;;;;;;;14.48;8.55;;;;;;;27.07;49.09;99044.48;129707;1093;114113;-65
2021/08/17 07:08:07;;;;;;;18.80;9.50;;;;;;;27.10;48.54;99041.74;129838;1093;22541;-64
2021/08/17 07:10:38;;;;;;;17.20;9.10;;;;;;;27.14;48.69;99038.97;129699;1093;115894;-65
2021/08/17 07:13:25;;;;;;;18.60;9.20;;;;;;;27.20;48.26;99034.66;129791;1092;22622;-66
2021/08/17 07:16:10;;;;;;;14.38;8.58;;;;;;;27.28;48.29;99035.54;129699;1092;114172;-65
2021/08/17 07:18:50;;;;;;;19.18;9.60;;;;;;;27.33;48.28;99033.22;130036;1093;22664;-65
2021/08/17 07:21:19;;;;;;;16.90;8.68;;;;;;;27.39;48.20;99028.91;129810;1093;23086;-65
2021/08/17 07:23:48;;;;;;;31.95;9.70;;;;;;;27.49;48.19;99035.80;129636;1093;114237;-64
2021/08/17 07:26:18;;;;;;;13.25;8.18;;;;;;;27.56;47.73;99035.90;130069;1093;23473;-65
2021/08/17 07:28:47;;;;;;;20.43;8.93;;;;;;;27.64;47.02;99034.80;129700;1092;114199;-65
2021/08/17 07:31:16;;;;;;;24.68;9.93;;;;;;;27.70;47.49;99044.45;129859;1092;22558;-65
2021/08/17 07:33:45;;;;;;;13.25;8.45;;;;;;;27.77;47.24;99033.34;129835;1092;22579;-65
2021/08/17 07:36:14;;;;;;;11.78;8.45;;;;;;;27.86;47.21;99037.80;129709;1093;113684;-65
2021/08/17 07:38:42;;;;;;;19.80;8.58;;;;;;;27.96;46.88;99035.13;130006;1093;22539;-65
2021/08/17 07:41:11;;;;;;;26.55;8.38;;;;;;;28.04;47.20;99039.59;129683;1093;113817;-65
2021/08/17 07:43:40;;;;;;;29.38;9.93;;;;;;;28.11;46.98;99050.07;129867;1093;22576;-65
2021/08/17 07:46:09;;;;;;;13.18;8.60;;;;;;;28.18;47.34;99044.52;129741;1092;114286;-65
2021/08/17 07:48:43;;;;;;;14.95;9.08;;;;;;;28.26;46.39;99045.42;130043;1092;22525;-65
2021/08/17 07:51:12;;;;;;;12.95;8.73;;;;;;;28.33;46.45;99048.27;129980;1093;22579;-65
2021/08/17 07:53:41;;;;;;;11.38;8.83;;;;;;;28.38;46.90;99048.73;129716;1093;114014;-65
2021/08/17 07:56:11;;;;;;;16.15;7.93;;;;;;;28.44;46.26;99051.95;129779;1092;24917;-66
2021/08/17 07:58:52;;;;;;;16.25;8.48;;;;;;;28.50;45.47;99042.81;129906;1092;114400;-65
2021/08/17 08:01:21;;;;;;;16.68;8.63;;;;;;;28.57;45.40;99038.45;129747;1093;22580;-65
2021/08/17 08:03:50;;;;;;;11.88;8.00;;;;;;;28.62;44.82;99043.68;129832;1093;22594;-65
2021/08/17 08:09:00;;;;;;;18.33;8.58;;;;;;;28.69;45.41;99046.55;125624;1093;26268;-63
2021/08/17 08:11:29;;;;;;;22.45;12.00;;;;;;;28.75;44.93;99042.16;129809;1091;113959;-64
2021/08/17 08:13:58;;;;;;;13.65;9.53;;;;;;;28.78;45.03;99049.80;129796;1092;22592;-64
2021/08/17 08:16:32;;;;;;;11.88;8.63;;;;;;;28.81;43.93;99029.42;129690;1092;114771;-64
2021/08/17 08:19:06;;;;;;;16.10;8.23;;;;;;;28.82;43.72;99031.03;129820;1092;22550;-64
2021/08/17 08:21:35;;;;;;;13.75;7.15;;;;;;;28.85;44.34;99028.22;129789;1093;22577;-64
2021/08/17 08:24:04;;;;;;;18.28;8.05;;;;;;;28.88;43.96;99026.64;129686;1093;112701;-64
2021/08/17 08:26:33;;;;;;;15.68;7.48;;;;;;;28.88;43.52;99037.86;129788;1093;23061;-64
2021/08/17 08:29:02;;;;;;;11.43;7.53;;;;;;;28.89;44.03;99039.47;129707;1092;113906;-64
2021/08/17 08:31:31;;;;;;;21.58;8.85;;;;;;;28.92;43.88;99029.47;129809;1093;23974;-65
2021/08/17 08:34:00;;;;;;;12.78;7.48;;;;;;;28.97;43.60;99029.91;129720;1091;113700;-66
2021/08/17 08:36:29;;;;;;;12.40;7.15;;;;;;;29.02;43.65;99031.52;129800;1093;22558;-66
2021/08/17 08:39:00;;;;;;;77.58;12.85;;;;;;;29.07;43.69;99029.16;129835;1092;22777;-65
2021/08/17 08:41:34;;;;;;;13.13;6.60;;;;;;;29.13;43.65;99040.81;125025;1093;114312;-67
2021/08/17 08:44:19;;;;;;;15.80;6.90;;;;;;;29.22;43.81;99032.83;125131;1092;22792;-65
2021/08/17 08:46:48;;;;;;;16.28;7.65;;;;;;;29.27;42.86;99034.45;125036;1093;113810;-65
2021/08/17 08:49:18;;;;;;;22.45;6.90;;;;;;;29.32;42.77;99036.86;129778;1093;23463;-66
2021/08/17 08:51:47;;;;;;;29.70;7.53;;;;;;;29.36;42.20;99032.88;129777;1092;23344;-63
2021/08/17 08:54:17;;;;;;;11.65;7.03;;;;;;;29.41;42.90;99026.12;129679;1093;114701;-64
2021/08/17 08:56:46;;;;;;;13.13;6.70;;;;;;;29.47;42.73;99030.94;129794;1093;22547;-63
2021/08/17 08:59:15;;;;;;;13.15;6.73;;;;;;;29.52;42.45;99027.75;129664;1093;113776;-63
2021/08/17 09:01:47;;;;;;;11.90;6.75;;;;;;;29.57;41.40;99020.95;129774;1093;22624;-65
2021/08/17 09:04:16;;;;;;;17.10;6.40;;;;;;;29.61;41.83;99024.55;129700;1095;113926;-65
2021/08/17 09:06:53;;;;;;;16.13;6.95;;;;;;;29.64;41.58;99028.58;129741;1093;22577;-65
2021/08/17 09:09:22;;;;;;;17.68;6.30;;;;;;;29.67;41.79;99028.59;129780;1095;22580;-65
2021/08/17 09:11:53;;;;;;;13.83;6.63;;;;;;;29.72;41.44;99018.98;129696;1094;113784;-65
2021/08/17 09:14:42;;;;;;;16.45;7.78;;;;;;;29.75;41.41;99020.97;129734;1095;23398;-64
2021/08/17 09:17:11;;;;;;;13.75;6.55;;;;;;;29.77;41.29;99033.42;129667;1093;113896;-65
2021/08/17 09:19:58;;;;;;;17.28;6.28;;;;;;;29.80;41.67;99027.01;129798;1096;22554;-65
2021/08/17 09:22:47;;;;;;;19.23;7.10;;;;;;;29.86;42.09;99028.23;129690;1094;113773;-66
2021/08/17 09:25:17;;;;;;;15.58;7.03;;;;;;;29.91;42.15;99029.83;129792;1094;23412;-65
2021/08/17 09:27:46;;;;;;;20.03;6.93;;;;;;;29.96;41.39;99018.20;129778;1096;22580;-65
2021/08/17 09:30:16;;;;;;;15.05;6.90;;;;;;;30.01;41.07;99017.05;129661;1093;113612;-66
2021/08/17 09:32:54;;;;;;;14.18;6.50;;;;;;;30.05;41.05;99006.59;129772;1092;22582;-66
2021/08/17 09:35:25;;;;;;;13.65;6.78;;;;;;;30.10;40.94;99017.44;129656;1094;113975;-65
2021/08/17 09:38:15;;;;;;;18.35;7.15;;;;;;;30.14;40.97;99013.44;129783;1093;22665;-66
2021/08/17 09:40:44;;;;;;;16.78;7.00;;;;;;;30.18;40.89;99019.03;129678;1093;115152;-66
2021/08/17 09:43:20;;;;;;;15.73;6.68;;;;;;;30.20;40.30;99019.44;129802;1092;22621;-65
2021/08/17 09:45:49;;;;;;;11.80;6.75;;;;;;;30.22;40.51;99022.66;129787;1093;22568;-65
2021/08/17 09:48:29;;;;;;;16.68;7.00;;;;;;;30.25;39.99;99027.48;129654;1093;113616;-66
2021/08/17 09:50:58;;;;;;;18.38;6.85;;;;;;;30.28;40.14;99015.44;129712;1093;22573;-66
2021/08/17 09:53:26;;;;;;;16.68;6.68;;;;;;;30.33;40.02;99014.20;129650;1093;113844;-66
2021/08/17 09:55:57;;;;;;;24.08;7.10;;;;;;;30.36;40.67;99019.84;129715;1093;23159;-66
2021/08/17 09:58:26;;;;;;;25.48;8.23;;;;;;;30.40;41.02;99020.64;129629;1092;113980;-65
2021/08/17 10:00:58;;;;;;;14.53;6.60;;;;;;;30.48;40.04;99019.42;129828;1093;22533;-66
2021/08/17 10:03:28;;;;;;;29.45;7.75;;;;;;;30.58;40.40;99020.66;129788;1093;22575;-66
2021/08/17 10:05:58;;;;;;;15.40;6.73;;;;;;;30.66;40.84;99024.25;129669;1093;114140;-65
2021/08/17 10:08:30;;;;;;;16.40;6.83;;;;;;;30.74;39.66;99029.44;129799;1092;22569;-66
2021/08/17 10:11:02;;;;;;;30.58;7.78;;;;;;;30.79;38.93;99033.86;129671;1092;113846;-66
2021/08/17 10:13:35;;;;;;;26.25;8.08;;;;;;;30.83;38.97;99029.03;129773;1092;22540;-66
2021/08/17 10:16:05;;;;;;;16.80;6.03;;;;;;;30.85;38.99;99024.61;129605;1096;113907;-66
2021/08/17 10:18:58;;;;;;;22.35;7.45;;;;;;;30.89;38.79;99028.20;129737;1093;23130;-66
2021/08/17 10:21:27;;;;;;;19.65;6.98;;;;;;;30.92;38.73;99027.39;129745;1093;22601;-66
2021/08/17 10:24:26;;;;;;;12.08;6.30;;;;;;;30.97;39.11;99036.63;129610;1093;113589;-66
2021/08/17 10:27:33;;;;;;;17.65;6.83;;;;;;;31.02;40.05;99051.07;129809;1093;22608;-66
2021/08/17 10:30:22;;;;;;;14.85;6.78;;;;;;;31.04;39.47;99040.21;129688;1093;113824;-66
2021/08/17 10:32:51;;;;;;;14.88;6.35;;;;;;;31.06;38.66;99039.81;129791;1093;22552;-66
2021/08/17 10:35:27;;;;;;;15.85;6.80;;;;;;;31.08;38.94;99043.02;129655;1092;114510;-65
2021/08/17 10:38:08;;;;;;;11.15;6.58;;;;;;;31.08;39.36;99041.02;129801;1092;22506;-66
2021/08/17 10:40:49;;;;;;;16.23;6.93;;;;;;;31.09;38.56;99041.81;129720;1092;114198;-66
2021/08/17 10:43:27;;;;;;;20.80;6.85;;;;;;;31.08;38.89;99034.58;129797;1092;23812;-66
2021/08/17 10:46:06;;;;;;;11.08;6.08;;;;;;;31.05;38.15;99027.75;129802;1093;22614;-66
2021/08/17 10:48:45;;;;;;;17.65;6.03;;;;;;;31.02;37.82;99022.93;129671;1092;113916;-66
2021/08/17 10:51:23;;;;;;;16.83;5.88;;;;;;;31.01;38.59;99028.99;129750;1093;23015;-66
2021/08/17 10:54:14;;;;;;;8.58;5.28;;;;;;;31.01;37.78;99017.73;129640;1092;113850;-66
2021/08/17 10:56:44;;;;;;;12.50;6.15;;;;;;;31.00;38.10;99027.38;129755;1093;22531;-66
2021/08/17 10:59:15;;;;;;;8.00;5.58;;;;;;;31.00;37.98;99014.12;129644;1092;114424;-66
2021/08/17 11:01:47;;;;;;;26.13;7.45;;;;;;;30.99;37.70;99031.41;129753;1093;23360;-66
2021/08/17 11:04:19;;;;;;;11.58;5.30;;;;;;;31.00;38.06;99022.56;129755;1092;114371;-65
2021/08/17 11:06:52;;;;;;;11.88;5.85;;;;;;;31.01;38.34;99018.54;129744;1093;22622;-66
2021/08/17 11:09:28;;;;;;;10.00;4.80;;;;;;;31.03;38.20;99016.09;129744;1093;22706;-66
2021/08/17 11:11:59;;;;;;;15.73;5.53;;;;;;;31.04;37.69;99011.27;129665;1093;114195;-66
2021/08/17 11:14:29;;;;;;;12.58;6.05;;;;;;;31.04;37.64;99009.26;129769;1093;23459;-66
2021/08/17 11:17:00;;;;;;;20.73;6.45;;;;;;;31.07;37.75;98996.39;129639;1092;113807;-66
2021/08/17 11:19:34;;;;;;;24.68;6.00;;;;;;;31.09;37.47;99006.03;129758;1092;22526;-67
2021/08/17 11:22:05;;;;;;;18.33;5.63;;;;;;;31.13;37.07;99006.05;129757;1093;22606;-66
2021/08/17 11:24:38;;;;;;;18.75;5.95;;;;;;;31.16;37.15;98999.61;129682;1093;115280;-66
2021/08/17 11:27:21;;;;;;;15.50;5.73;;;;;;;31.20;37.18;99006.01;129814;1093;22532;-66
2021/08/17 11:29:53;;;;;;;18.63;5.33;;;;;;;31.21;36.37;98999.97;129595;1092;113960;-66
2021/08/17 11:32:34;;;;;;;20.10;6.33;;;;;;;31.23;36.12;99008.81;129602;1093;23203;-66
2021/08/17 11:35:08;;;;;;;14.15;5.55;;;;;;;31.24;35.41;98998.36;129686;1093;113824;-67
2021/08/17 11:37:42;;;;;;;19.33;6.23;;;;;;;31.23;35.91;98991.92;129780;1093;22728;-66